Time;durP1;ratioP1;P1;durP2;ratioP2;P2;SDS_P1;SDS_P2;PMS_P1;PMS_P2;Temp;Humidity;BMP_temperature;BMP_pressure;BME280_temperature;BME280_humidity;BME280_pressure;Samples;Min_cycle;Max_cycle;Signal;HPM_P1;HPM_P2
2021/03/21 00:00:23;;;;;;;96.90;88.47;;;19.30;99.90;;;;;;5094207;28;20020;-65
2021/03/21 00:02:50;;;;;;;92.00;84.05;;;19.30;99.90;;;;;;5094613;28;20023;-65
2021/03/21 00:05:18;;;;;;;92.47;84.70;;;19.30;99.90;;;;;;5094087;28;20031;-66
2021/03/21 00:07:45;;;;;;;90.85;82.90;;;19.30;99.90;;;;;;5093781;28;20032;-65
2021/03/21 00:10:13;;;;;;;90.50;83.00;;;19.20;99.90;;;;;;5093890;28;20028;-67
2021/03/21 00:12:40;;;;;;;94.90;86.25;;;19.20;99.90;;;;;;5093966;28;20472;-66
2021/03/21 00:15:08;;;;;;;95.43;87.13;;;19.20;99.90;;;;;;5093902;28;20064;-66
2021/03/21 00:17:36;;;;;;;92.47;84.18;;;19.20;99.90;;;;;;5093802;28;20051;-65
2021/03/21 00:20:07;;;;;;;97.60;88.55;;;19.20;99.90;;;;;;5093855;28;20082;-66
2021/03/21 00:22:34;;;;;;;96.35;87.90;;;19.20;99.90;;;;;;5093829;28;20020;-66
2021/03/21 00:25:01;;;;;;;95.93;88.18;;;19.20;99.90;;;;;;5093574;28;20028;-66
2021/03/21 00:27:29;;;;;;;94.13;86.28;;;19.30;99.90;;;;;;5093963;28;20334;-66
2021/03/21 00:29:56;;;;;;;90.90;83.43;;;19.20;99.90;;;;;;5092157;28;20118;-66
2021/03/21 00:32:23;;;;;;;89.95;82.53;;;19.20;99.90;;;;;;5093631;28;20073;-66
2021/03/21 00:34:51;;;;;;;92.90;85.10;;;19.10;99.90;;;;;;5093612;28;20020;-66
2021/03/21 00:37:18;;;;;;;87.78;80.72;;;19.10;99.90;;;;;;5093353;28;20024;-66
2021/03/21 00:39:45;;;;;;;87.72;80.95;;;19.10;99.90;;;;;;5093499;28;20071;-66
2021/03/21 00:42:13;;;;;;;89.47;82.18;;;19.10;99.90;;;;;;5093735;28;20484;-67
2021/03/21 00:44:40;;;;;;;88.65;81.53;;;19.00;99.90;;;;;;5093427;28;20569;-66
2021/03/21 00:47:07;;;;;;;90.25;82.82;;;19.00;99.90;;;;;;5093313;28;20342;-66
2021/03/21 00:49:35;;;;;;;90.25;82.45;;;19.00;99.90;;;;;;5093419;28;20553;-66
2021/03/21 00:52:02;;;;;;;89.70;81.85;;;19.00;99.90;;;;;;5093634;28;20017;-65
2021/03/21 00:54:30;;;;;;;90.65;83.43;;;19.00;99.90;;;;;;5093294;28;20047;-66
2021/03/21 00:56:57;;;;;;;92.25;84.93;;;19.00;99.90;;;;;;5093048;28;20130;-65
2021/03/21 00:59:24;;;;;;;92.30;84.55;;;19.10;99.90;;;;;;5093308;28;20109;-65
2021/03/21 01:01:52;;;;;;;94.35;86.20;;;19.10;99.90;;;;;;5092536;28;20105;-66
2021/03/21 01:04:19;;;;;;;93.05;85.35;;;19.10;99.90;;;;;;5093202;28;20107;-66
2021/03/21 01:06:46;;;;;;;94.35;86.07;;;19.10;99.90;;;;;;5093094;28;20039;-66
2021/03/21 01:09:18;;;;;;;91.55;84.18;;;19.00;99.90;;;;;;5093147;28;20020;-66
2021/03/21 01:11:45;;;;;;;90.82;83.35;;;19.00;99.90;;;;;;5093221;28;20028;-66
2021/03/21 01:14:12;;;;;;;89.93;82.38;;;19.00;99.90;;;;;;5093144;28;20032;-66
2021/03/21 01:16:42;;;;;;;89.00;81.95;;;19.10;99.90;;;;;;5093116;28;20103;-66
2021/03/21 01:19:19;;;;;;;85.93;79.70;;;19.10;99.90;;;;;;5093066;28;20020;-65
2021/03/21 01:21:48;;;;;;;84.88;77.80;;;19.10;99.90;;;;;;5092914;28;20024;-66
2021/03/21 01:24:24;;;;;;;83.07;77.10;;;19.10;99.90;;;;;;5093561;28;20107;-66
2021/03/21 01:26:52;;;;;;;84.00;77.70;;;19.10;99.90;;;;;;5092941;28;20385;-66
2021/03/21 01:29:20;;;;;;;85.75;79.43;;;19.10;99.90;;;;;;5092879;28;20028;-66
2021/03/21 01:31:47;;;;;;;84.20;78.05;;;19.20;99.90;;;;;;5093050;28;20031;-66
2021/03/21 01:34:15;;;;;;;80.90;75.40;;;19.20;99.90;;;;;;5092946;28;20097;-66
2021/03/21 01:36:43;;;;;;;83.18;77.57;;;19.30;99.90;;;;;;5091561;28;20078;-66
2021/03/21 01:39:23;;;;;;;82.18;77.00;;;19.30;99.90;;;;;;5092801;28;20040;-66
2021/03/21 01:42:03;;;;;;;77.43;72.25;;;19.40;99.90;;;;;;5092899;28;20023;-66
2021/03/21 01:44:30;;;;;;;;;;;19.60;99.90;;;;;;5093630;28;20376;-66
2021/03/21 01:46:58;;;;;;;78.68;73.00;;;19.70;99.90;;;;;;5092975;28;19904;-66
2021/03/21 01:49:32;;;;;;;80.20;74.35;;;19.70;99.90;;;;;;5093490;28;20510;-68
2021/03/21 01:52:02;;;;;;;76.35;71.05;;;19.70;99.90;;;;;;5092837;28;20480;-67
2021/03/21 01:54:30;;;;;;;84.68;78.90;;;19.70;99.90;;;;;;5092657;28;20489;-66
2021/03/21 01:56:58;;;;;;;85.95;79.90;;;19.60;99.90;;;;;;5092725;28;20032;-66
2021/03/21 01:59:29;;;;;;;87.72;81.78;;;19.50;99.90;;;;;;5092983;28;20056;-66
2021/03/21 02:02:01;;;;;;;90.38;83.78;;;19.50;99.90;;;;;;5093165;28;20074;-67
2021/03/21 02:04:28;;;;;;;89.82;83.13;;;19.40;99.90;;;;;;5092688;28;20430;-66
2021/03/21 02:07:18;;;;;;;87.70;81.38;;;19.30;99.90;;;;;;5093066;28;20047;-67
2021/03/21 02:10:22;;;;;;;88.88;82.07;;;19.40;99.90;;;;;;5093065;28;20099;-66
2021/03/21 02:13:04;;;;;;;84.93;78.47;;;19.30;99.90;;;;;;5092851;28;20043;-65
2021/03/21 02:15:48;;;;;;;89.13;82.72;;;19.20;99.90;;;;;;5096659;28;20099;-66
2021/03/21 02:18:46;;;;;;;90.25;83.53;;;19.20;99.90;;;;;;5096727;28;20057;-66
2021/03/21 02:21:16;;;;;;;87.85;81.25;;;19.10;99.90;;;;;;5096440;28;20376;-66
2021/03/21 02:23:56;;;;;;;89.28;83.00;;;19.10;99.90;;;;;;5096218;28;20531;-66
2021/03/21 02:26:55;;;;;;;92.70;85.95;;;19.10;99.90;;;;;;5096129;28;20074;-66
2021/03/21 02:29:29;;;;;;;96.70;89.75;;;19.00;99.90;;;;;;5096317;28;20016;-66
2021/03/21 02:32:02;;;;;;;90.47;84.10;;;18.90;99.90;;;;;;5096475;28;20017;-66
2021/03/21 02:34:41;;;;;;;89.15;83.45;;;18.90;99.90;;;;;;5096518;28;20099;-66
2021/03/21 02:37:17;;;;;;;85.40;79.13;;;19.00;99.90;;;;;;5096432;28;20065;-66
2021/03/21 02:39:58;;;;;;;84.82;78.63;;;19.00;99.90;;;;;;5095775;28;20524;-66
2021/03/21 02:42:35;;;;;;;78.07;72.60;;;19.10;99.90;;;;;;5095667;28;20020;-66
2021/03/21 02:45:18;;;;;;;75.07;69.82;;;19.10;99.90;;;;;;5096065;28;20016;-66
2021/03/21 02:47:47;;;;;;;73.97;68.72;;;19.20;99.90;;;;;;5095741;28;20429;-65
2021/03/21 02:50:47;;;;;;;71.93;66.95;;;19.20;99.90;;;;;;5095568;28;20028;-66
2021/03/21 02:53:39;;;;;;;67.68;63.00;;;19.20;99.90;;;;;;5095600;28;20028;-66
2021/03/21 02:56:10;;;;;;;70.88;66.25;;;19.30;99.90;;;;;;5095471;28;20028;-65
2021/03/21 02:58:43;;;;;;;72.15;67.05;;;19.30;99.90;;;;;;5095674;28;20016;-65
2021/03/21 03:01:21;;;;;;;65.20;60.92;;;19.30;99.90;;;;;;5095900;28;20024;-65
2021/03/21 03:03:52;;;;;;;57.63;53.70;;;19.30;99.90;;;;;;5095393;28;20376;-66
2021/03/21 03:06:30;;;;;;;;;;;19.20;99.90;;;;;;5095927;28;20065;-66
2021/03/21 03:09:09;;;;;;;59.90;55.30;;;19.20;99.90;;;;;;5095174;28;19947;-64
2021/03/21 03:11:49;;;;;;;65.47;61.13;;;19.10;99.90;;;;;;5095994;28;20024;-64
2021/03/21 03:14:39;;;;;;;64.00;58.70;;;19.10;99.90;;;;;;5095077;28;20032;-67
2021/03/21 03:17:09;;;;;;;68.78;63.60;;;19.10;99.90;;;;;;5094541;28;20040;-66
2021/03/21 03:19:52;;;;;;;71.32;65.80;;;19.20;99.90;;;;;;5095565;28;20091;-71
2021/03/21 03:22:39;;;;;;;66.72;61.78;;;19.20;99.90;;;;;;5094959;28;20477;-66
2021/03/21 03:25:53;;;;;;;75.07;69.72;;;19.20;99.90;;;;;;5043359;28;20038;-70
2021/03/21 03:28:30;;;;;;;73.20;67.85;;;19.30;99.90;;;;;;5088185;28;20037;-68
2021/03/21 03:31:22;;;;;;;75.88;70.10;;;19.30;99.90;;;;;;5094662;28;20026;-67
2021/03/21 03:33:50;;;;;;;74.60;68.85;;;19.30;99.90;;;;;;5095326;28;20500;-67
2021/03/21 03:36:19;;;;;;;79.20;73.20;;;19.30;99.90;;;;;;5094565;28;20541;-68
2021/03/21 03:38:50;;;;;;;80.63;75.03;;;19.30;99.90;;;;;;5094418;28;20112;-67
2021/03/21 03:41:35;;;;;;;82.38;76.30;;;19.20;99.90;;;;;;5094702;28;20012;-67
2021/03/21 03:44:21;;;;;;;84.07;77.97;;;19.20;99.90;;;;;;5094736;28;20461;-67
2021/03/21 03:47:19;;;;;;;83.25;76.63;;;19.10;99.90;;;;;;5094710;28;20024;-67
2021/03/21 03:49:55;;;;;;;80.82;74.78;;;19.10;99.90;;;;;;5094500;28;20023;-67
2021/03/21 03:52:34;;;;;;;79.35;74.22;;;19.10;99.90;;;;;;5094482;28;20358;-67
2021/03/21 03:55:25;;;;;;;80.82;75.43;;;19.10;99.90;;;;;;5094181;28;20058;-67
2021/03/21 03:57:59;;;;;;;86.72;81.10;;;19.10;99.90;;;;;;5094753;28;20373;-67
2021/03/21 04:00:37;;;;;;;81.57;76.35;;;19.00;99.90;;;;;;5094119;28;20024;-67
2021/03/21 04:03:30;;;;;;;81.25;76.05;;;18.90;99.90;;;;;;5094199;28;20020;-68
2021/03/21 04:06:00;;;;;;;83.22;77.97;;;18.90;99.90;;;;;;5094033;28;20028;-68
2021/03/21 04:08:47;;;;;;;80.47;74.93;;;18.80;99.90;;;;;;5094062;28;20020;-67
2021/03/21 04:11:22;;;;;;;83.53;77.55;;;18.70;99.90;;;;;;5093973;28;20036;-67
2021/03/21 04:13:58;;;;;;;79.38;73.70;;;18.70;99.90;;;;;;5094511;28;20028;-67
2021/03/21 04:16:37;;;;;;;79.68;73.88;;;18.70;99.90;;;;;;5093914;28;20031;-67
2021/03/21 04:19:12;;;;;;;83.72;77.80;;;18.70;99.90;;;;;;5094019;28;20069;-67
2021/03/21 04:21:46;;;;;;;77.00;71.70;;;18.60;99.90;;;;;;5094186;28;20020;-67
2021/03/21 04:24:39;;;;;;;79.85;74.50;;;18.60;99.90;;;;;;5094147;28;20047;-67
2021/03/21 04:27:19;;;;;;;79.25;73.63;;;18.50;99.90;;;;;;5093820;28;20102;-67
2021/03/21 04:30:11;;;;;;;78.13;73.03;;;18.60;99.90;;;;;;5093868;28;20080;-72
2021/03/21 04:32:49;;;;;;;82.20;76.72;;;18.70;99.90;;;;;;5093597;28;20401;-67
2021/03/21 04:35:41;;;;;;;87.05;81.13;;;18.60;99.90;;;;;;5093709;28;20103;-66
2021/03/21 04:38:32;;;;;;;79.85;74.90;;;18.60;99.90;;;;;;5061250;28;20038;-66
2021/03/21 04:41:01;;;;;;;75.45;70.85;;;18.60;99.90;;;;;;5079339;28;20043;-67
2021/03/21 04:43:49;;;;;;;71.45;67.13;;;18.60;99.90;;;;;;5093934;28;20028;-67
2021/03/21 04:46:31;;;;;;;72.35;68.10;;;18.60;99.90;;;;;;5093922;28;20539;-67
2021/03/21 04:48:59;;;;;;;73.55;68.90;;;18.50;99.90;;;;;;5092266;28;20043;-67
2021/03/21 04:51:33;;;;;;;71.65;67.20;;;18.40;99.90;;;;;;5093269;28;20489;-67
2021/03/21 04:54:25;;;;;;;77.00;71.93;;;18.40;99.90;;;;;;5093978;28;20454;-67
2021/03/21 04:57:20;;;;;;;79.40;74.03;;;18.30;99.90;;;;;;5093241;28;20035;-67
2021/03/21 04:59:48;;;;;;;81.85;76.35;;;18.20;99.90;;;;;;5093633;28;20108;-67
2021/03/21 05:02:28;;;;;;;81.97;76.32;;;18.30;99.90;;;;;;5091858;28;20039;-67
2021/03/21 05:05:06;;;;;;;;;;;18.30;99.90;;;;;;5093672;28;20027;-67
2021/03/21 05:07:49;;;;;;;85.40;79.90;;;18.30;99.90;;;;;;5093256;28;19967;-67
2021/03/21 05:10:43;;;;;;;84.43;78.80;;;18.30;99.90;;;;;;5093289;28;20024;-67
2021/03/21 05:13:43;;;;;;;89.13;83.32;;;18.40;99.90;;;;;;5093341;28;20051;-67
2021/03/21 05:16:20;;;;;;;87.55;81.82;;;18.30;99.90;;;;;;5093152;28;20080;-67
2021/03/21 05:19:05;;;;;;;81.68;76.00;;;18.40;99.90;;;;;;5093427;28;20027;-67
2021/03/21 05:21:50;;;;;;;84.63;78.63;;;18.40;99.90;;;;;;5092989;28;20103;-68
2021/03/21 05:24:20;;;;;;;88.03;82.00;;;18.40;99.90;;;;;;5093089;28;20095;-67
2021/03/21 05:27:13;;;;;;;85.53;79.05;;;18.40;99.90;;;;;;5092933;28;20115;-67
2021/03/21 05:29:54;;;;;;;81.80;76.47;;;18.40;99.90;;;;;;5089839;28;20035;-67
2021/03/21 05:32:23;;;;;;;79.70;74.15;;;18.40;99.90;;;;;;5093220;28;20032;-67
2021/03/21 05:34:54;;;;;;;81.72;75.78;;;18.40;99.90;;;;;;5093533;28;20115;-66
2021/03/21 05:37:52;;;;;;;78.13;72.53;;;18.40;99.90;;;;;;5092973;28;20054;-67
2021/03/21 05:40:54;;;;;;;80.82;74.80;;;18.40;99.90;;;;;;5092965;28;20408;-67
2021/03/21 05:43:28;;;;;;;76.72;71.18;;;18.30;99.90;;;;;;5079262;28;20024;-67
2021/03/21 05:46:06;;;;;;;71.95;66.57;;;18.30;99.90;;;;;;5093418;28;20027;-67
2021/03/21 05:48:52;;;;;;;69.18;64.03;;;18.30;99.90;;;;;;5094413;28;20027;-67
2021/03/21 05:51:55;;;;;;;74.15;68.70;;;18.30;99.90;;;;;;5097059;28;20526;-67
2021/03/21 05:54:32;;;;;;;70.65;65.65;;;18.30;99.90;;;;;;5097169;28;20024;-67
2021/03/21 05:57:36;;;;;;;71.40;66.35;;;18.40;99.90;;;;;;5097175;28;20074;-67
2021/03/21 06:00:24;;;;;;;67.40;62.45;;;18.40;99.90;;;;;;5097125;28;20065;-67
2021/03/21 06:02:57;;;;;;;70.85;66.20;;;18.40;99.90;;;;;;5096774;28;20016;-67
2021/03/21 06:05:42;;;;;;;67.57;63.05;;;18.40;99.90;;;;;;5096889;28;20013;-67
2021/03/21 06:08:27;;;;;;;65.63;60.80;;;18.40;99.90;;;;;;5096096;28;20032;-67
2021/03/21 06:11:28;;;;;;;62.97;58.42;;;18.40;99.90;;;;;;5096211;28;20024;-67
2021/03/21 06:14:49;;;;;;;62.83;58.00;;;18.50;99.90;;;;;;5096015;28;20027;-67
2021/03/21 06:17:16;;;;;;;;;;;18.50;99.90;;;;;;5096918;28;20031;-67
2021/03/21 06:20:07;;;;;;;61.85;57.63;;;18.50;99.90;;;;;;5096248;28;19904;-66
2021/03/21 06:23:05;;;;;;;57.72;53.50;;;18.40;99.90;;;;;;5096115;28;20044;-67
2021/03/21 06:26:16;;;;;;;59.33;55.08;;;18.40;99.90;;;;;;5096092;28;20091;-66
2021/03/21 06:28:50;;;;;;;58.85;54.63;;;18.40;99.90;;;;;;5064691;28;20481;-67
2021/03/21 06:31:47;;;;;;;62.15;57.58;;;18.40;99.90;;;;;;5096002;28;20020;-67
2021/03/21 06:34:47;;;;;;;64.35;60.08;;;18.40;99.90;;;;;;5096189;28;20055;-66
2021/03/21 06:37:32;;;;;;;72.97;67.38;;;18.40;99.90;;;;;;5096116;28;20028;-67
2021/03/21 06:40:26;;;;;;;71.93;66.97;;;18.40;99.90;;;;;;5095682;28;20044;-66
2021/03/21 06:43:02;;;;;;;73.95;68.75;;;18.40;99.90;;;;;;5094397;28;20047;-67
2021/03/21 06:45:56;;;;;;;74.57;69.55;;;18.40;99.90;;;;;;5095944;28;20016;-67
2021/03/21 06:48:49;;;;;;;79.40;73.85;;;18.40;99.90;;;;;;5095895;28;20028;-67
2021/03/21 06:51:31;;;;;;;77.07;71.07;;;18.40;99.90;;;;;;5095513;28;20069;-66
2021/03/21 06:54:21;;;;;;;77.18;71.70;;;18.30;99.90;;;;;;5096101;28;20587;-66
2021/03/21 06:57:04;;;;;;;73.95;68.70;;;18.30;99.90;;;;;;5095439;28;20076;-67
2021/03/21 06:59:55;;;;;;;82.50;76.70;;;18.30;99.90;;;;;;5094790;28;20016;-66
2021/03/21 07:02:58;;;;;;;79.50;73.85;;;18.20;99.90;;;;;;5095932;28;20465;-67
2021/03/21 07:05:50;;;;;;;76.03;70.35;;;18.10;99.90;;;;;;5095557;28;20020;-67
2021/03/21 07:08:50;;;;;;;77.80;72.32;;;18.10;99.90;;;;;;5095713;28;20100;-67
2021/03/21 07:11:38;;;;;;;80.18;73.97;;;18.10;99.90;;;;;;5095450;28;20522;-67
2021/03/21 07:14:42;;;;;;;76.78;71.22;;;18.10;99.90;;;;;;5095322;28;20031;-67
2021/03/21 07:17:32;;;;;;;79.57;74.15;;;18.10;99.90;;;;;;5095063;28;20077;-67
2021/03/21 07:20:29;;;;;;;78.20;72.80;;;18.10;99.90;;;;;;5095705;28;20025;-67
2021/03/21 07:23:35;;;;;;;77.40;71.75;;;18.10;99.90;;;;;;5095299;28;20375;-67
2021/03/21 07:26:36;;;;;;;76.63;70.93;;;18.10;99.90;;;;;;5071927;28;20370;-67
2021/03/21 07:29:20;;;;;;;81.63;75.18;;;18.10;99.90;;;;;;5095119;28;20073;-67
2021/03/21 07:32:20;;;;;;;82.82;76.57;;;18.20;99.90;;;;;;5094849;28;20031;-67
2021/03/21 07:35:08;;;;;;;79.60;73.60;;;18.20;99.90;;;;;;5079375;28;20024;-67
2021/03/21 07:38:00;;;;;;;81.43;75.40;;;18.20;99.90;;;;;;5094804;28;20031;-67
2021/03/21 07:40:52;;;;;;;83.35;76.63;;;18.20;99.90;;;;;;5094306;28;20064;-66
2021/03/21 07:43:38;;;;;;;82.07;75.75;;;18.20;99.90;;;;;;5094439;28;20038;-67
2021/03/21 07:46:08;;;;;;;85.03;78.68;;;18.20;99.90;;;;;;5094713;28;20028;-66
2021/03/21 07:49:02;;;;;;;92.65;84.88;;;18.30;99.90;;;;;;5094335;28;20031;-66
2021/03/21 07:51:53;;;;;;;86.22;80.00;;;18.40;99.90;;;;;;5094660;28;20099;-66
2021/03/21 07:54:36;;;;;;;86.28;79.43;;;18.40;99.90;;;;;;5094543;28;20050;-67
2021/03/21 07:57:08;;;;;;;86.43;79.30;;;18.40;99.90;;;;;;5094446;28;20116;-66
2021/03/21 07:59:37;;;;;;;85.25;78.78;;;18.40;99.90;;;;;;5094770;28;20020;-67
2021/03/21 08:02:05;;;;;;;95.07;87.93;;;18.40;99.90;;;;;;5094177;28;20028;-67
2021/03/21 08:04:38;;;;;;;97.82;90.30;;;18.40;99.90;;;;;;5094287;28;20027;-67
2021/03/21 08:07:28;;;;;;;101.95;94.43;;;18.40;99.90;;;;;;5094028;28;20477;-67
2021/03/21 08:09:56;;;;;;;102.07;94.63;;;18.40;99.90;;;;;;5092774;28;20020;-67
2021/03/21 08:12:23;;;;;;;100.57;93.13;;;18.40;99.90;;;;;;5093833;28;20028;-66
2021/03/21 08:14:54;;;;;;;98.78;91.75;;;18.40;99.90;;;;;;5093850;28;20421;-67
2021/03/21 08:17:27;;;;;;;96.45;89.05;;;18.40;99.90;;;;;;5093805;28;20058;-68
2021/03/21 08:20:17;;;;;;;84.28;77.72;;;18.40;99.90;;;;;;5093871;28;20028;-66
2021/03/21 08:22:45;;;;;;;85.37;78.63;;;18.40;99.90;;;;;;5093706;28;20026;-67
2021/03/21 08:25:29;;;;;;;85.00;78.05;;;18.40;99.90;;;;;;5093470;28;20332;-68
2021/03/21 08:27:57;;;;;;;82.18;75.55;;;18.40;99.90;;;;;;5092218;28;20034;-68
2021/03/21 08:30:43;;;;;;;77.07;69.95;;;18.50;99.90;;;;;;5093553;28;20425;-68
2021/03/21 08:33:12;;;;;;;80.85;74.22;;;18.50;99.90;;;;;;5093640;28;20038;-68
2021/03/21 08:35:39;;;;;;;81.55;74.53;;;18.50;99.90;;;;;;5093470;28;20020;-65
2021/03/21 08:38:20;;;;;;;83.88;77.20;;;18.50;99.90;;;;;;5093682;28;20032;-67
2021/03/21 08:40:58;;;;;;;83.00;75.93;;;18.60;99.90;;;;;;5093385;28;20036;-67
2021/03/21 08:43:30;;;;;;;81.82;74.93;;;18.60;99.90;;;;;;5093777;28;20492;-67
2021/03/21 08:45:57;;;;;;;81.78;74.95;;;18.50;99.90;;;;;;5093362;28;20017;-67
2021/03/21 08:48:32;;;;;;;77.18;70.95;;;18.50;99.90;;;;;;5092002;28;20032;-67
2021/03/21 08:51:05;;;;;;;81.60;74.85;;;18.50;99.90;;;;;;5093800;28;20020;-67
2021/03/21 08:53:53;;;;;;;82.53;75.50;;;18.50;99.90;;;;;;5093298;28;20050;-66
2021/03/21 08:56:36;;;;;;;85.43;78.72;;;18.60;99.90;;;;;;5093205;28;20424;-67
2021/03/21 08:59:32;;;;;;;90.07;83.15;;;18.60;99.90;;;;;;5093229;28;20111;-67
2021/03/21 09:02:10;;;;;;;90.10;83.20;;;18.60;99.90;;;;;;5092049;28;20465;-65
2021/03/21 09:04:41;;;;;;;87.47;80.45;;;18.60;99.90;;;;;;5093420;28;20028;-66
2021/03/21 09:07:21;;;;;;;88.72;81.43;;;18.60;99.90;;;;;;5092107;28;20037;-66
2021/03/21 09:10:05;;;;;;;90.53;83.43;;;18.60;99.90;;;;;;5093284;28;20020;-66
2021/03/21 09:12:37;;;;;;;91.03;83.43;;;18.60;99.90;;;;;;5093374;28;20058;-65
2021/03/21 09:15:32;;;;;;;93.05;84.72;;;18.60;99.90;;;;;;5093005;28;20028;-67
2021/03/21 09:18:17;;;;;;;91.38;83.70;;;18.60;99.90;;;;;;5093273;28;20051;-66
2021/03/21 09:21:06;;;;;;;92.75;84.32;;;18.60;99.90;;;;;;5093590;28;20412;-66
2021/03/21 09:23:45;;;;;;;88.90;81.53;;;18.60;99.90;;;;;;5076541;28;20465;-67
2021/03/21 09:26:20;;;;;;;90.72;83.20;;;18.70;99.90;;;;;;5097091;28;20024;-66
2021/03/21 09:28:52;;;;;;;94.65;86.20;;;18.70;99.90;;;;;;5096944;28;20024;-65
2021/03/21 09:31:20;;;;;;;95.47;86.95;;;18.70;99.90;;;;;;5095740;28;20499;-66
2021/03/21 09:34:13;;;;;;;93.57;85.72;;;18.70;99.90;;;;;;5097089;28;20020;-66
2021/03/21 09:36:47;;;;;;;97.85;89.53;;;18.80;99.90;;;;;;5096906;28;20023;-66
2021/03/21 09:39:21;;;;;;;97.30;89.80;;;18.70;99.90;;;;;;5096842;28;20040;-65
2021/03/21 09:41:50;;;;;;;99.75;92.20;;;18.70;99.90;;;;;;5097194;28;20589;-66
2021/03/21 09:44:44;;;;;;;101.55;93.72;;;18.70;99.90;;;;;;5095362;28;20020;-66
2021/03/21 09:47:39;;;;;;;99.70;91.65;;;18.70;99.90;;;;;;5096686;28;20035;-66
2021/03/21 09:50:33;;;;;;;101.75;94.35;;;18.70;99.90;;;;;;5096745;28;20024;-66
2021/03/21 09:53:27;;;;;;;96.95;89.55;;;18.70;99.90;;;;;;5095314;28;20548;-66
2021/03/21 09:55:58;;;;;;;100.78;93.07;;;18.70;99.90;;;;;;5096867;28;20091;-67
2021/03/21 09:58:39;;;;;;;97.32;89.18;;;18.70;99.90;;;;;;5096429;28;20028;-67
2021/03/21 10:01:20;;;;;;;91.57;84.65;;;18.70;99.90;;;;;;5096421;28;20024;-67
2021/03/21 10:03:50;;;;;;;;;;;18.70;99.90;;;;;;5097187;28;20051;-66
2021/03/21 10:06:44;;;;;;;89.55;81.85;;;18.80;99.90;;;;;;5096432;28;19910;-67
2021/03/21 10:09:22;;;;;;;89.43;82.30;;;18.80;99.90;;;;;;5093839;28;20032;-67
2021/03/21 10:11:53;;;;;;;94.68;86.07;;;18.80;99.90;;;;;;5096216;28;20419;-66
2021/03/21 10:14:23;;;;;;;100.70;91.68;;;18.90;99.90;;;;;;5096195;28;20036;-66
2021/03/21 10:16:55;;;;;;;102.22;93.25;;;18.90;99.90;;;;;;5095629;28;20032;-66
2021/03/21 10:19:55;;;;;;;101.70;93.07;;;18.90;99.90;;;;;;5096522;28;20180;-66
2021/03/21 10:22:25;;;;;;;95.70;88.13;;;18.90;99.90;;;;;;5096759;28;20480;-65
2021/03/21 10:24:54;;;;;;;95.53;87.88;;;18.80;99.90;;;;;;5096631;28;20448;-65
2021/03/21 10:27:24;;;;;;;94.03;86.70;;;18.70;99.90;;;;;;5095908;28;20051;-67
2021/03/21 10:29:51;;;;;;;95.25;88.10;;;18.60;99.90;;;;;;5095969;28;20488;-68
2021/03/21 10:32:29;;;;;;;94.68;87.68;;;18.60;99.90;;;;;;5096007;28;20044;-67
2021/03/21 10:34:59;;;;;;;95.85;88.80;;;18.60;99.90;;;;;;5095847;28;20020;-66
2021/03/21 10:37:44;;;;;;;92.93;85.28;;;18.50;99.90;;;;;;5095779;28;20039;-67
2021/03/21 10:40:26;;;;;;;93.82;86.43;;;18.50;99.90;;;;;;5095785;28;20036;-66
2021/03/21 10:42:59;;;;;;;95.82;88.25;;;18.60;99.90;;;;;;5096336;28;20020;-66
2021/03/21 10:45:35;;;;;;;93.55;86.80;;;18.60;99.90;;;;;;5095904;28;20024;-66
2021/03/21 10:48:09;;;;;;;93.25;85.85;;;18.70;99.90;;;;;;5096170;28;20051;-67
2021/03/21 10:50:51;;;;;;;95.72;88.20;;;18.70;99.90;;;;;;5094243;28;20031;-67
2021/03/21 10:54:01;;;;;;;93.85;86.43;;;18.60;99.90;;;;;;5096145;28;20438;-67
2021/03/21 10:56:30;;;;;;;96.93;89.10;;;18.70;99.90;;;;;;5095248;28;20338;-67
2021/03/21 10:59:27;;;;;;;100.15;92.50;;;18.70;99.90;;;;;;5095461;28;20491;-67
2021/03/21 11:02:24;;;;;;;97.53;89.43;;;18.70;99.90;;;;;;5094453;28;20025;-67
2021/03/21 11:05:18;;;;;;;99.47;92.18;;;18.70;99.90;;;;;;5092958;28;20123;-66
2021/03/21 11:07:45;;;;;;;103.75;95.60;;;18.80;99.90;;;;;;5095438;28;20103;-66
2021/03/21 11:10:14;;;;;;;101.82;94.18;;;18.90;99.90;;;;;;5095235;28;20388;-66
2021/03/21 11:12:43;;;;;;;99.95;92.28;;;18.90;99.90;;;;;;5095035;28;20031;-66
2021/03/21 11:15:33;;;;;;;102.97;94.70;;;18.90;99.90;;;;;;5094981;28;20024;-66
2021/03/21 11:18:27;;;;;;;100.93;92.70;;;18.90;99.90;;;;;;5095068;28;20028;-66
2021/03/21 11:21:20;;;;;;;102.70;94.47;;;19.00;99.90;;;;;;5094955;28;20111;-66
2021/03/21 11:24:14;;;;;;;101.60;93.80;;;19.00;99.90;;;;;;5094911;28;20020;-67
2021/03/21 11:26:41;;;;;;;102.75;94.10;;;19.10;99.90;;;;;;5095130;28;20066;-67
2021/03/21 11:29:12;;;;;;;105.57;97.15;;;19.10;99.90;;;;;;5094689;28;20020;-67
2021/03/21 11:31:53;;;;;;;106.90;97.90;;;19.20;99.90;;;;;;5095595;28;20017;-67
2021/03/21 11:34:29;;;;;;;103.80;95.38;;;19.20;99.90;;;;;;5093333;28;20073;-67
2021/03/21 11:37:05;;;;;;;103.57;95.15;;;19.20;99.90;;;;;;5095147;28;20298;-66
2021/03/21 11:39:37;;;;;;;101.53;92.85;;;19.20;99.90;;;;;;5094400;28;20527;-67
2021/03/21 11:42:20;;;;;;;102.22;93.15;;;19.30;99.90;;;;;;5094640;28;20016;-67
2021/03/21 11:44:50;;;;;;;102.43;93.53;;;19.30;99.90;;;;;;5094532;28;20536;-67
2021/03/21 11:47:26;;;;;;;102.15;93.90;;;19.30;99.90;;;;;;5094293;28;20027;-67
2021/03/21 11:49:55;;;;;;;105.75;96.22;;;19.40;99.90;;;;;;5093156;28;20027;-67
2021/03/21 11:52:24;;;;;;;105.82;96.25;;;19.40;99.90;;;;;;5094999;28;20020;-67
2021/03/21 11:54:52;;;;;;;103.07;94.53;;;19.40;99.90;;;;;;5094418;28;20031;-67
2021/03/21 11:57:49;;;;;;;102.18;93.43;;;19.30;99.90;;;;;;5094799;28;20021;-68
2021/03/21 12:00:46;;;;;;;103.97;96.35;;;19.30;99.90;;;;;;5060951;28;20051;-67
2021/03/21 12:03:19;;;;;;;100.03;92.40;;;19.30;99.90;;;;;;5092752;28;20077;-66
2021/03/21 12:06:04;;;;;;;103.32;94.97;;;19.30;99.90;;;;;;5094230;28;20039;-66
2021/03/21 12:08:39;;;;;;;101.15;92.85;;;19.30;99.90;;;;;;5094600;28;20020;-66
2021/03/21 12:11:25;;;;;;;105.90;97.57;;;19.30;99.90;;;;;;5094256;28;20099;-67
2021/03/21 12:14:15;;;;;;;102.50;95.10;;;19.30;99.90;;;;;;5093861;28;20035;-67
2021/03/21 12:16:45;;;;;;;101.97;93.90;;;19.20;99.90;;;;;;5093687;28;20051;-67
2021/03/21 12:19:25;;;;;;;97.78;89.85;;;19.10;99.90;;;;;;5093850;28;20074;-66
2021/03/21 12:21:58;;;;;;;97.22;88.72;;;19.20;99.90;;;;;;5093811;28;20020;-66
2021/03/21 12:24:28;;;;;;;99.32;91.22;;;19.10;99.90;;;;;;5093768;28;20024;-66
2021/03/21 12:27:00;;;;;;;102.57;93.87;;;19.20;99.90;;;;;;5093669;28;20047;-66
2021/03/21 12:29:43;;;;;;;105.72;96.28;;;19.20;99.90;;;;;;5093599;28;20261;-66
2021/03/21 12:32:30;;;;;;;105.38;96.70;;;19.20;99.90;;;;;;5093613;28;20152;-66
2021/03/21 12:34:58;;;;;;;105.38;96.63;;;19.20;99.90;;;;;;5093448;28;20051;-66
2021/03/21 12:37:52;;;;;;;107.18;98.32;;;19.20;99.90;;;;;;5093514;28;20059;-67
2021/03/21 12:40:31;;;;;;;105.50;96.55;;;19.30;99.90;;;;;;5093232;28;20044;-66
2021/03/21 12:43:17;;;;;;;104.55;95.47;;;19.30;99.90;;;;;;5093367;28;20423;-66
2021/03/21 12:46:09;;;;;;;104.30;95.47;;;19.30;99.90;;;;;;5093304;28;20103;-67
2021/03/21 12:48:55;;;;;;;109.97;100.05;;;19.40;99.90;;;;;;5093405;28;20039;-67
2021/03/21 12:51:40;;;;;;;103.70;95.03;;;19.40;99.90;;;;;;5093287;28;20428;-67
2021/03/21 12:54:08;;;;;;;104.18;95.13;;;19.40;99.90;;;;;;5093610;28;20102;-67
2021/03/21 12:56:35;;;;;;;102.45;93.70;;;19.40;99.90;;;;;;5093236;28;20404;-66
2021/03/21 12:59:02;;;;;;;103.18;94.65;;;19.40;99.90;;;;;;5092441;28;20016;-66
2021/03/21 13:01:30;;;;;;;104.32;95.00;;;19.40;99.90;;;;;;5093295;28;20020;-67
2021/03/21 13:03:57;;;;;;;104.75;95.10;;;19.40;99.90;;;;;;5093749;28;20016;-67
2021/03/21 13:06:24;;;;;;;106.78;97.85;;;19.40;99.90;;;;;;5093195;28;20017;-67
2021/03/21 13:08:52;;;;;;;108.28;99.20;;;19.40;99.90;;;;;;5093202;28;20074;-67
2021/03/21 13:11:22;;;;;;;108.13;98.60;;;19.40;99.90;;;;;;5093970;28;20095;-67
2021/03/21 13:13:49;;;;;;;111.20;102.60;;;19.40;99.90;;;;;;5093238;28;20503;-67
2021/03/21 13:16:17;;;;;;;109.22;100.00;;;19.40;99.90;;;;;;5093091;28;20028;-67
2021/03/21 13:18:44;;;;;;;108.95;100.13;;;19.40;99.90;;;;;;5093123;28;20469;-67
2021/03/21 13:21:13;;;;;;;111.78;101.55;;;19.40;99.90;;;;;;5093069;28;20099;-67
2021/03/21 13:23:40;;;;;;;108.43;99.88;;;19.40;99.90;;;;;;5092912;28;20027;-67
2021/03/21 13:26:10;;;;;;;102.63;94.10;;;19.40;99.90;;;;;;5093036;28;20468;-67